sensor_id;sensor_type;location;lat;lon;timestamp;P1;durP1;ratioP1;P2;durP2;ratioP2
65737;SDS011;52478;51.844;6.582;2023-02-26T00:01:51;5.00;;;1.80;;
65737;SDS011;52478;51.844;6.582;2023-02-26T00:04:26;5.10;;;1.77;;
65737;SDS011;52478;51.844;6.582;2023-02-26T00:06:52;5.43;;;1.65;;
65737;SDS011;52478;51.844;6.582;2023-02-26T00:09:19;5.30;;;1.70;;
65737;SDS011;52478;51.844;6.582;2023-02-26T00:11:46;5.82;;;1.50;;
65737;SDS011;52478;51.844;6.582;2023-02-26T00:14:14;4.82;;;1.77;;
65737;SDS011;52478;51.844;6.582;2023-02-26T00:16:43;5.43;;;1.60;;
65737;SDS011;52478;51.844;6.582;2023-02-26T00:19:14;5.50;;;1.50;;
65737;SDS011;52478;51.844;6.582;2023-02-26T00:21:41;4.82;;;1.42;;
65737;SDS011;52478;51.844;6.582;2023-02-26T00:24:08;5.30;;;1.65;;
65737;SDS011;52478;51.844;6.582;2023-02-26T00:26:35;5.90;;;1.90;;
65737;SDS011;52478;51.844;6.582;2023-02-26T00:29:01;5.32;;;1.55;;
65737;SDS011;52478;51.844;6.582;2023-02-26T00:31:29;5.20;;;1.60;;
65737;SDS011;52478;51.844;6.582;2023-02-26T00:36:27;4.82;;;1.85;;
65737;SDS011;52478;51.844;6.582;2023-02-26T00:39:05;4.53;;;1.35;;
65737;SDS011;52478;51.844;6.582;2023-02-26T00:41:35;4.65;;;1.60;;
65737;SDS011;52478;51.844;6.582;2023-02-26T00:44:02;4.85;;;1.40;;
65737;SDS011;52478;51.844;6.582;2023-02-26T00:49:06;5.00;;;1.40;;
65737;SDS011;52478;51.844;6.582;2023-02-26T00:51:43;4.90;;;1.60;;
65737;SDS011;52478;51.844;6.582;2023-02-26T00:54:15;4.88;;;1.58;;
65737;SDS011;52478;51.844;6.582;2023-02-26T00:56:45;5.25;;;1.42;;
65737;SDS011;52478;51.844;6.582;2023-02-26T00:59:11;4.45;;;1.33;;
65737;SDS011;52478;51.844;6.582;2023-02-26T01:01:38;5.03;;;1.48;;
65737;SDS011;52478;51.844;6.582;2023-02-26T01:04:06;4.82;;;1.88;;
65737;SDS011;52478;51.844;6.582;2023-02-26T01:06:34;4.72;;;1.50;;
65737;SDS011;52478;51.844;6.582;2023-02-26T01:09:04;4.03;;;1.30;;
65737;SDS011;52478;51.844;6.582;2023-02-26T01:11:39;5.20;;;1.52;;
65737;SDS011;52478;51.844;6.582;2023-02-26T01:14:06;4.72;;;1.42;;
65737;SDS011;52478;51.844;6.582;2023-02-26T01:16:33;5.00;;;1.80;;
65737;SDS011;52478;51.844;6.582;2023-02-26T01:19:08;5.35;;;1.60;;
65737;SDS011;52478;51.844;6.582;2023-02-26T01:21:44;4.80;;;1.60;;
65737;SDS011;52478;51.844;6.582;2023-02-26T01:24:16;5.45;;;1.90;;
65737;SDS011;52478;51.844;6.582;2023-02-26T01:26:46;4.47;;;1.40;;
65737;SDS011;52478;51.844;6.582;2023-02-26T01:29:14;4.72;;;1.55;;
65737;SDS011;52478;51.844;6.582;2023-02-26T01:31:44;5.32;;;1.52;;
65737;SDS011;52478;51.844;6.582;2023-02-26T01:34:18;4.20;;;1.25;;
65737;SDS011;52478;51.844;6.582;2023-02-26T01:36:50;5.53;;;1.60;;
65737;SDS011;52478;51.844;6.582;2023-02-26T01:39:24;5.32;;;1.48;;
65737;SDS011;52478;51.844;6.582;2023-02-26T01:41:56;5.28;;;1.50;;
65737;SDS011;52478;51.844;6.582;2023-02-26T01:44:29;4.70;;;1.67;;
65737;SDS011;52478;51.844;6.582;2023-02-26T01:47:08;4.75;;;1.45;;
65737;SDS011;52478;51.844;6.582;2023-02-26T01:49:42;5.75;;;1.60;;
65737;SDS011;52478;51.844;6.582;2023-02-26T01:55:09;4.80;;;1.20;;
65737;SDS011;52478;51.844;6.582;2023-02-26T01:57:36;4.95;;;1.70;;
65737;SDS011;52478;51.844;6.582;2023-02-26T02:00:03;5.18;;;1.58;;
65737;SDS011;52478;51.844;6.582;2023-02-26T02:02:30;6.32;;;1.65;;
65737;SDS011;52478;51.844;6.582;2023-02-26T02:04:59;8.27;;;1.40;;
65737;SDS011;52478;51.844;6.582;2023-02-26T02:07:29;6.28;;;1.60;;
65737;SDS011;52478;51.844;6.582;2023-02-26T02:09:56;4.95;;;1.30;;
65737;SDS011;52478;51.844;6.582;2023-02-26T02:12:24;5.97;;;1.30;;
65737;SDS011;52478;51.844;6.582;2023-02-26T02:15:01;4.15;;;1.40;;
65737;SDS011;52478;51.844;6.582;2023-02-26T02:17:36;4.18;;;1.50;;
65737;SDS011;52478;51.844;6.582;2023-02-26T02:20:18;4.53;;;1.40;;
65737;SDS011;52478;51.844;6.582;2023-02-26T02:23:08;4.22;;;1.60;;
65737;SDS011;52478;51.844;6.582;2023-02-26T02:28:41;5.07;;;1.30;;
65737;SDS011;52478;51.844;6.582;2023-02-26T02:31:16;6.30;;;1.70;;
65737;SDS011;52478;51.844;6.582;2023-02-26T02:33:48;4.68;;;1.33;;
65737;SDS011;52478;51.844;6.582;2023-02-26T02:36:19;5.68;;;1.70;;
65737;SDS011;52478;51.844;6.582;2023-02-26T02:38:50;4.13;;;1.20;;
65737;SDS011;52478;51.844;6.582;2023-02-26T02:41:21;4.30;;;1.30;;
65737;SDS011;52478;51.844;6.582;2023-02-26T02:43:53;4.45;;;1.40;;
65737;SDS011;52478;51.844;6.582;2023-02-26T02:46:23;5.15;;;1.40;;
65737;SDS011;52478;51.844;6.582;2023-02-26T02:48:53;5.10;;;1.42;;
65737;SDS011;52478;51.844;6.582;2023-02-26T02:51:26;5.80;;;1.40;;
65737;SDS011;52478;51.844;6.582;2023-02-26T02:53:58;4.60;;;1.67;;
65737;SDS011;52478;51.844;6.582;2023-02-26T02:56:29;5.00;;;1.60;;
65737;SDS011;52478;51.844;6.582;2023-02-26T02:59:02;5.30;;;1.50;;
65737;SDS011;52478;51.844;6.582;2023-02-26T03:01:37;4.82;;;1.25;;
65737;SDS011;52478;51.844;6.582;2023-02-26T03:04:07;4.57;;;1.10;;
65737;SDS011;52478;51.844;6.582;2023-02-26T03:06:36;3.80;;;1.30;;
65737;SDS011;52478;51.844;6.582;2023-02-26T03:09:04;3.88;;;1.45;;
65737;SDS011;52478;51.844;6.582;2023-02-26T03:11:32;5.18;;;1.38;;
65737;SDS011;52478;51.844;6.582;2023-02-26T03:13:59;5.40;;;1.67;;
65737;SDS011;52478;51.844;6.582;2023-02-26T03:16:29;4.70;;;1.20;;
65737;SDS011;52478;51.844;6.582;2023-02-26T03:19:11;4.32;;;1.10;;
65737;SDS011;52478;51.844;6.582;2023-02-26T03:21:45;4.53;;;1.30;;
65737;SDS011;52478;51.844;6.582;2023-02-26T03:24:15;4.47;;;1.40;;
65737;SDS011;52478;51.844;6.582;2023-02-26T03:26:47;4.40;;;1.42;;
65737;SDS011;52478;51.844;6.582;2023-02-26T03:29:22;5.22;;;1.38;;
65737;SDS011;52478;51.844;6.582;2023-02-26T03:31:57;4.90;;;1.38;;
65737;SDS011;52478;51.844;6.582;2023-02-26T03:34:27;4.80;;;1.63;;
65737;SDS011;52478;51.844;6.582;2023-02-26T03:39:28;4.75;;;1.40;;
65737;SDS011;52478;51.844;6.582;2023-02-26T03:41:59;5.47;;;1.30;;
65737;SDS011;52478;51.844;6.582;2023-02-26T03:44:30;4.15;;;1.20;;
65737;SDS011;52478;51.844;6.582;2023-02-26T03:47:02;5.38;;;1.50;;
65737;SDS011;52478;51.844;6.582;2023-02-26T03:49:33;3.65;;;1.20;;
65737;SDS011;52478;51.844;6.582;2023-02-26T03:52:05;4.30;;;1.10;;
65737;SDS011;52478;51.844;6.582;2023-02-26T03:54:33;4.05;;;1.40;;
65737;SDS011;52478;51.844;6.582;2023-02-26T03:57:02;4.75;;;1.20;;
65737;SDS011;52478;51.844;6.582;2023-02-26T03:59:29;3.97;;;1.20;;
65737;SDS011;52478;51.844;6.582;2023-02-26T04:01:57;3.92;;;1.23;;
65737;SDS011;52478;51.844;6.582;2023-02-26T04:04:29;4.38;;;1.33;;
65737;SDS011;52478;51.844;6.582;2023-02-26T04:06:59;4.75;;;1.60;;
65737;SDS011;52478;51.844;6.582;2023-02-26T04:09:26;3.33;;;1.10;;
65737;SDS011;52478;51.844;6.582;2023-02-26T04:11:53;4.53;;;1.42;;
65737;SDS011;52478;51.844;6.582;2023-02-26T04:14:21;4.10;;;1.20;;
65737;SDS011;52478;51.844;6.582;2023-02-26T04:16:48;3.95;;;1.30;;
65737;SDS011;52478;51.844;6.582;2023-02-26T04:19:14;3.53;;;1.10;;
65737;SDS011;52478;51.844;6.582;2023-02-26T04:21:42;4.13;;;1.23;;
65737;SDS011;52478;51.844;6.582;2023-02-26T04:24:09;5.13;;;1.27;;
65737;SDS011;52478;51.844;6.582;2023-02-26T04:26:35;4.13;;;1.20;;
65737;SDS011;52478;51.844;6.582;2023-02-26T04:29:02;4.43;;;1.30;;
65737;SDS011;52478;51.844;6.582;2023-02-26T04:31:28;4.05;;;1.08;;
65737;SDS011;52478;51.844;6.582;2023-02-26T04:33:55;4.20;;;1.40;;
65737;SDS011;52478;51.844;6.582;2023-02-26T04:36:21;3.65;;;1.45;;
65737;SDS011;52478;51.844;6.582;2023-02-26T04:38:49;4.43;;;1.10;;
65737;SDS011;52478;51.844;6.582;2023-02-26T04:41:16;4.65;;;1.35;;
65737;SDS011;52478;51.844;6.582;2023-02-26T04:43:42;3.88;;;1.40;;
65737;SDS011;52478;51.844;6.582;2023-02-26T04:46:09;3.97;;;1.40;;
65737;SDS011;52478;51.844;6.582;2023-02-26T04:48:35;4.70;;;1.40;;
65737;SDS011;52478;51.844;6.582;2023-02-26T04:51:02;4.82;;;1.30;;
65737;SDS011;52478;51.844;6.582;2023-02-26T04:53:28;4.72;;;1.10;;
65737;SDS011;52478;51.844;6.582;2023-02-26T04:55:56;4.25;;;1.50;;
65737;SDS011;52478;51.844;6.582;2023-02-26T04:58:23;4.07;;;1.30;;
65737;SDS011;52478;51.844;6.582;2023-02-26T05:00:49;4.72;;;1.17;;
65737;SDS011;52478;51.844;6.582;2023-02-26T05:03:17;4.25;;;1.33;;
65737;SDS011;52478;51.844;6.582;2023-02-26T05:05:44;5.10;;;1.65;;
65737;SDS011;52478;51.844;6.582;2023-02-26T05:08:11;3.78;;;1.30;;
65737;SDS011;52478;51.844;6.582;2023-02-26T05:10:37;4.95;;;1.10;;
65737;SDS011;52478;51.844;6.582;2023-02-26T05:13:06;3.95;;;1.10;;
65737;SDS011;52478;51.844;6.582;2023-02-26T05:15:32;4.28;;;1.20;;
65737;SDS011;52478;51.844;6.582;2023-02-26T05:17:59;5.28;;;1.50;;
65737;SDS011;52478;51.844;6.582;2023-02-26T05:20:25;3.47;;;1.00;;
65737;SDS011;52478;51.844;6.582;2023-02-26T05:22:52;3.45;;;0.90;;
65737;SDS011;52478;51.844;6.582;2023-02-26T05:25:18;3.85;;;1.00;;
65737;SDS011;52478;51.844;6.582;2023-02-26T05:27:45;4.82;;;1.40;;
65737;SDS011;52478;51.844;6.582;2023-02-26T05:30:14;3.78;;;1.00;;
65737;SDS011;52478;51.844;6.582;2023-02-26T05:32:41;4.20;;;1.13;;
65737;SDS011;52478;51.844;6.582;2023-02-26T05:35:08;3.65;;;0.98;;
65737;SDS011;52478;51.844;6.582;2023-02-26T05:40:01;4.85;;;1.35;;
65737;SDS011;52478;51.844;6.582;2023-02-26T05:42:28;4.55;;;1.10;;
65737;SDS011;52478;51.844;6.582;2023-02-26T05:44:55;3.58;;;0.95;;
65737;SDS011;52478;51.844;6.582;2023-02-26T05:47:23;4.30;;;1.13;;
65737;SDS011;52478;51.844;6.582;2023-02-26T05:49:49;4.05;;;1.30;;
65737;SDS011;52478;51.844;6.582;2023-02-26T05:52:16;3.92;;;1.27;;
65737;SDS011;52478;51.844;6.582;2023-02-26T05:54:42;3.40;;;1.10;;
65737;SDS011;52478;51.844;6.582;2023-02-26T05:57:09;3.92;;;1.20;;
65737;SDS011;52478;51.844;6.582;2023-02-26T05:59:35;4.68;;;1.40;;
65737;SDS011;52478;51.844;6.582;2023-02-26T06:02:03;3.38;;;0.90;;
65737;SDS011;52478;51.844;6.582;2023-02-26T06:04:30;2.97;;;1.08;;
65737;SDS011;52478;51.844;6.582;2023-02-26T06:06:57;3.70;;;0.85;;
65737;SDS011;52478;51.844;6.582;2023-02-26T06:09:23;3.47;;;1.00;;
65737;SDS011;52478;51.844;6.582;2023-02-26T06:11:50;4.75;;;1.38;;
65737;SDS011;52478;51.844;6.582;2023-02-26T06:14:16;3.30;;;1.10;;
65737;SDS011;52478;51.844;6.582;2023-02-26T06:16:43;3.55;;;1.30;;
65737;SDS011;52478;51.844;6.582;2023-02-26T06:19:09;3.60;;;1.10;;
65737;SDS011;52478;51.844;6.582;2023-02-26T06:21:38;3.17;;;0.98;;
65737;SDS011;52478;51.844;6.582;2023-02-26T06:24:05;4.25;;;1.20;;
65737;SDS011;52478;51.844;6.582;2023-02-26T06:26:32;3.25;;;1.10;;
65737;SDS011;52478;51.844;6.582;2023-02-26T06:28:58;4.32;;;1.08;;
65737;SDS011;52478;51.844;6.582;2023-02-26T06:31:25;4.05;;;1.23;;
65737;SDS011;52478;51.844;6.582;2023-02-26T06:33:51;4.28;;;1.30;;
65737;SDS011;52478;51.844;6.582;2023-02-26T06:36:18;4.00;;;1.55;;
65737;SDS011;52478;51.844;6.582;2023-02-26T06:38:46;4.00;;;1.38;;
65737;SDS011;52478;51.844;6.582;2023-02-26T06:41:12;3.92;;;1.45;;
65737;SDS011;52478;51.844;6.582;2023-02-26T06:43:39;4.35;;;1.10;;
65737;SDS011;52478;51.844;6.582;2023-02-26T06:46:05;4.53;;;1.00;;
65737;SDS011;52478;51.844;6.582;2023-02-26T06:48:32;5.15;;;1.08;;
65737;SDS011;52478;51.844;6.582;2023-02-26T06:50:58;3.47;;;1.55;;
65737;SDS011;52478;51.844;6.582;2023-02-26T06:53:25;6.05;;;1.10;;
65737;SDS011;52478;51.844;6.582;2023-02-26T06:55:53;7.20;;;1.50;;
65737;SDS011;52478;51.844;6.582;2023-02-26T06:58:19;9.40;;;1.63;;
65737;SDS011;52478;51.844;6.582;2023-02-26T07:00:46;7.65;;;1.58;;
65737;SDS011;52478;51.844;6.582;2023-02-26T07:03:14;10.10;;;1.58;;
65737;SDS011;52478;51.844;6.582;2023-02-26T07:05:41;8.27;;;1.95;;
65737;SDS011;52478;51.844;6.582;2023-02-26T07:08:09;7.72;;;1.50;;
65737;SDS011;52478;51.844;6.582;2023-02-26T07:10:36;7.65;;;1.50;;
65737;SDS011;52478;51.844;6.582;2023-02-26T07:13:04;5.28;;;1.38;;
65737;SDS011;52478;51.844;6.582;2023-02-26T07:15:31;6.43;;;1.33;;
65737;SDS011;52478;51.844;6.582;2023-02-26T07:17:58;6.75;;;1.33;;
65737;SDS011;52478;51.844;6.582;2023-02-26T07:20:25;8.05;;;1.77;;
65737;SDS011;52478;51.844;6.582;2023-02-26T07:22:51;4.78;;;1.63;;
65737;SDS011;52478;51.844;6.582;2023-02-26T07:25:18;4.15;;;1.23;;
65737;SDS011;52478;51.844;6.582;2023-02-26T07:27:44;4.63;;;1.40;;
65737;SDS011;52478;51.844;6.582;2023-02-26T07:30:13;6.80;;;1.48;;
65737;SDS011;52478;51.844;6.582;2023-02-26T07:32:40;6.10;;;1.40;;
65737;SDS011;52478;51.844;6.582;2023-02-26T07:35:06;5.72;;;1.33;;
65737;SDS011;52478;51.844;6.582;2023-02-26T07:37:33;4.90;;;1.60;;
65737;SDS011;52478;51.844;6.582;2023-02-26T07:40:00;5.00;;;1.30;;
65737;SDS011;52478;51.844;6.582;2023-02-26T07:42:27;4.03;;;1.10;;
65737;SDS011;52478;51.844;6.582;2023-02-26T07:44:53;5.32;;;1.50;;
65737;SDS011;52478;51.844;6.582;2023-02-26T07:47:21;4.90;;;1.50;;
65737;SDS011;52478;51.844;6.582;2023-02-26T07:49:48;5.72;;;1.55;;
65737;SDS011;52478;51.844;6.582;2023-02-26T07:52:14;5.57;;;1.40;;
65737;SDS011;52478;51.844;6.582;2023-02-26T07:54:41;5.85;;;1.15;;
65737;SDS011;52478;51.844;6.582;2023-02-26T07:57:07;8.77;;;1.50;;
65737;SDS011;52478;51.844;6.582;2023-02-26T07:59:34;6.38;;;1.20;;
65737;SDS011;52478;51.844;6.582;2023-02-26T08:02:00;5.03;;;1.23;;
65737;SDS011;52478;51.844;6.582;2023-02-26T08:04:28;6.70;;;1.60;;
65737;SDS011;52478;51.844;6.582;2023-02-26T08:06:56;4.88;;;1.20;;
65737;SDS011;52478;51.844;6.582;2023-02-26T08:09:23;7.72;;;1.80;;
65737;SDS011;52478;51.844;6.582;2023-02-26T08:11:50;4.78;;;1.30;;
65737;SDS011;52478;51.844;6.582;2023-02-26T08:14:16;7.72;;;1.83;;
65737;SDS011;52478;51.844;6.582;2023-02-26T08:16:43;5.88;;;1.80;;
65737;SDS011;52478;51.844;6.582;2023-02-26T08:19:09;4.88;;;1.30;;
65737;SDS011;52478;51.844;6.582;2023-02-26T08:21:37;6.15;;;1.58;;
65737;SDS011;52478;51.844;6.582;2023-02-26T08:24:04;6.15;;;1.58;;
65737;SDS011;52478;51.844;6.582;2023-02-26T08:26:30;6.15;;;1.73;;
65737;SDS011;52478;51.844;6.582;2023-02-26T08:29:00;9.27;;;1.80;;
65737;SDS011;52478;51.844;6.582;2023-02-26T08:33:55;6.07;;;1.42;;
65737;SDS011;52478;51.844;6.582;2023-02-26T08:36:22;6.72;;;1.20;;
65737;SDS011;52478;51.844;6.582;2023-02-26T08:38:49;7.35;;;1.70;;
65737;SDS011;52478;51.844;6.582;2023-02-26T08:41:16;6.10;;;1.42;;
65737;SDS011;52478;51.844;6.582;2023-02-26T08:43:43;5.95;;;1.33;;
65737;SDS011;52478;51.844;6.582;2023-02-26T08:46:11;6.13;;;1.52;;
65737;SDS011;52478;51.844;6.582;2023-02-26T08:48:37;5.57;;;1.50;;
65737;SDS011;52478;51.844;6.582;2023-02-26T08:51:04;7.10;;;1.20;;
65737;SDS011;52478;51.844;6.582;2023-02-26T08:53:30;8.40;;;1.65;;
65737;SDS011;52478;51.844;6.582;2023-02-26T08:55:58;7.55;;;1.40;;
65737;SDS011;52478;51.844;6.582;2023-02-26T08:58:25;6.38;;;1.50;;
65737;SDS011;52478;51.844;6.582;2023-02-26T09:00:51;5.43;;;1.50;;
65737;SDS011;52478;51.844;6.582;2023-02-26T09:05:45;5.72;;;1.48;;
65737;SDS011;52478;51.844;6.582;2023-02-26T09:08:11;6.90;;;1.45;;
65737;SDS011;52478;51.844;6.582;2023-02-26T09:10:39;7.20;;;1.30;;
65737;SDS011;52478;51.844;6.582;2023-02-26T09:13:07;6.55;;;1.52;;
65737;SDS011;52478;51.844;6.582;2023-02-26T09:15:34;4.60;;;1.50;;
65737;SDS011;52478;51.844;6.582;2023-02-26T09:18:00;7.18;;;1.63;;
65737;SDS011;52478;51.844;6.582;2023-02-26T09:20:27;4.70;;;1.10;;
65737;SDS011;52478;51.844;6.582;2023-02-26T09:22:53;6.00;;;1.27;;
65737;SDS011;52478;51.844;6.582;2023-02-26T09:25:20;5.18;;;1.15;;
65737;SDS011;52478;51.844;6.582;2023-02-26T09:27:47;5.45;;;1.20;;
65737;SDS011;52478;51.844;6.582;2023-02-26T09:30:16;6.70;;;1.20;;
65737;SDS011;52478;51.844;6.582;2023-02-26T09:32:42;4.30;;;1.42;;
65737;SDS011;52478;51.844;6.582;2023-02-26T09:35:09;4.72;;;1.33;;
65737;SDS011;52478;51.844;6.582;2023-02-26T09:37:36;4.40;;;1.00;;
65737;SDS011;52478;51.844;6.582;2023-02-26T09:40:04;5.85;;;1.27;;
65737;SDS011;52478;51.844;6.582;2023-02-26T09:42:36;4.45;;;1.20;;
65737;SDS011;52478;51.844;6.582;2023-02-26T09:45:20;5.38;;;1.30;;
65737;SDS011;52478;51.844;6.582;2023-02-26T09:47:55;4.32;;;1.33;;
65737;SDS011;52478;51.844;6.582;2023-02-26T09:52:51;6.35;;;1.02;;
65737;SDS011;52478;51.844;6.582;2023-02-26T09:55:23;4.63;;;1.13;;
65737;SDS011;52478;51.844;6.582;2023-02-26T09:57:54;4.60;;;1.70;;
65737;SDS011;52478;51.844;6.582;2023-02-26T10:00:28;4.43;;;1.30;;
65737;SDS011;52478;51.844;6.582;2023-02-26T10:02:59;4.97;;;1.17;;
65737;SDS011;52478;51.844;6.582;2023-02-26T10:05:36;4.03;;;1.05;;
65737;SDS011;52478;51.844;6.582;2023-02-26T10:08:06;7.13;;;1.50;;
65737;SDS011;52478;51.844;6.582;2023-02-26T10:10:42;4.70;;;1.05;;
65737;SDS011;52478;51.844;6.582;2023-02-26T10:13:18;4.20;;;0.95;;
65737;SDS011;52478;51.844;6.582;2023-02-26T10:15:50;5.93;;;1.17;;
65737;SDS011;52478;51.844;6.582;2023-02-26T10:18:18;4.95;;;1.35;;
65737;SDS011;52478;51.844;6.582;2023-02-26T10:20:50;4.93;;;1.30;;
65737;SDS011;52478;51.844;6.582;2023-02-26T10:23:22;6.95;;;1.38;;
65737;SDS011;52478;51.844;6.582;2023-02-26T10:25:55;5.00;;;1.13;;
65737;SDS011;52478;51.844;6.582;2023-02-26T10:28:32;4.30;;;1.20;;
65737;SDS011;52478;51.844;6.582;2023-02-26T10:31:08;5.75;;;1.17;;
65737;SDS011;52478;51.844;6.582;2023-02-26T10:33:42;6.00;;;1.55;;
65737;SDS011;52478;51.844;6.582;2023-02-26T10:36:16;4.95;;;1.25;;
65737;SDS011;52478;51.844;6.582;2023-02-26T10:38:48;4.00;;;1.27;;
65737;SDS011;52478;51.844;6.582;2023-02-26T10:41:19;4.68;;;1.33;;
65737;SDS011;52478;51.844;6.582;2023-02-26T10:43:54;5.32;;;1.05;;
65737;SDS011;52478;51.844;6.582;2023-02-26T10:46:28;5.50;;;1.63;;
65737;SDS011;52478;51.844;6.582;2023-02-26T10:49:07;3.85;;;1.27;;
65737;SDS011;52478;51.844;6.582;2023-02-26T10:51:50;3.83;;;1.08;;
65737;SDS011;52478;51.844;6.582;2023-02-26T10:54:20;4.10;;;1.15;;
65737;SDS011;52478;51.844;6.582;2023-02-26T10:56:49;4.78;;;1.00;;
65737;SDS011;52478;51.844;6.582;2023-02-26T10:59:16;6.28;;;1.60;;
65737;SDS011;52478;51.844;6.582;2023-02-26T11:01:44;3.78;;;1.10;;
65737;SDS011;52478;51.844;6.582;2023-02-26T11:04:12;4.03;;;1.00;;
65737;SDS011;52478;51.844;6.582;2023-02-26T11:06:44;3.92;;;1.17;;
65737;SDS011;52478;51.844;6.582;2023-02-26T11:09:17;4.75;;;1.00;;
65737;SDS011;52478;51.844;6.582;2023-02-26T11:11:47;4.97;;;1.10;;
65737;SDS011;52478;51.844;6.582;2023-02-26T11:14:16;5.38;;;1.55;;
65737;SDS011;52478;51.844;6.582;2023-02-26T11:16:47;7.78;;;1.48;;
65737;SDS011;52478;51.844;6.582;2023-02-26T11:19:15;4.18;;;1.02;;
65737;SDS011;52478;51.844;6.582;2023-02-26T11:21:43;6.88;;;1.60;;
65737;SDS011;52478;51.844;6.582;2023-02-26T11:24:12;5.88;;;1.35;;
65737;SDS011;52478;51.844;6.582;2023-02-26T11:26:43;6.82;;;1.55;;
65737;SDS011;52478;51.844;6.582;2023-02-26T11:29:13;4.70;;;1.15;;
65737;SDS011;52478;51.844;6.582;2023-02-26T11:31:42;6.53;;;1.25;;
65737;SDS011;52478;51.844;6.582;2023-02-26T11:34:13;5.75;;;1.50;;
65737;SDS011;52478;51.844;6.582;2023-02-26T11:36:40;5.18;;;1.20;;
65737;SDS011;52478;51.844;6.582;2023-02-26T11:39:13;6.18;;;1.40;;
65737;SDS011;52478;51.844;6.582;2023-02-26T11:41:41;6.80;;;1.67;;
65737;SDS011;52478;51.844;6.582;2023-02-26T11:44:12;10.25;;;1.70;;
65737;SDS011;52478;51.844;6.582;2023-02-26T11:46:42;6.25;;;1.00;;
65737;SDS011;52478;51.844;6.582;2023-02-26T11:49:11;6.22;;;1.50;;
65737;SDS011;52478;51.844;6.582;2023-02-26T11:51:44;5.15;;;1.40;;
65737;SDS011;52478;51.844;6.582;2023-02-26T11:54:21;8.68;;;1.80;;
65737;SDS011;52478;51.844;6.582;2023-02-26T11:56:49;4.43;;;1.17;;
65737;SDS011;52478;51.844;6.582;2023-02-26T11:59:17;5.30;;;1.55;;
65737;SDS011;52478;51.844;6.582;2023-02-26T12:01:45;5.20;;;1.45;;
65737;SDS011;52478;51.844;6.582;2023-02-26T12:04:14;11.90;;;1.80;;
65737;SDS011;52478;51.844;6.582;2023-02-26T12:06:44;8.98;;;1.60;;
65737;SDS011;52478;51.844;6.582;2023-02-26T12:09:12;6.38;;;1.70;;
65737;SDS011;52478;51.844;6.582;2023-02-26T12:11:47;8.23;;;2.10;;
65737;SDS011;52478;51.844;6.582;2023-02-26T12:14:29;8.43;;;2.05;;
65737;SDS011;52478;51.844;6.582;2023-02-26T12:17:17;8.77;;;1.65;;
65737;SDS011;52478;51.844;6.582;2023-02-26T12:19:56;9.13;;;1.80;;
65737;SDS011;52478;51.844;6.582;2023-02-26T12:22:46;11.93;;;2.15;;
65737;SDS011;52478;51.844;6.582;2023-02-26T12:28:05;8.48;;;2.00;;
65737;SDS011;52478;51.844;6.582;2023-02-26T12:30:56;9.20;;;1.77;;
65737;SDS011;52478;51.844;6.582;2023-02-26T12:33:37;6.90;;;1.73;;
65737;SDS011;52478;51.844;6.582;2023-02-26T12:36:19;6.75;;;1.65;;
65737;SDS011;52478;51.844;6.582;2023-02-26T12:38:55;7.30;;;2.00;;
65737;SDS011;52478;51.844;6.582;2023-02-26T12:41:41;10.55;;;2.10;;
65737;SDS011;52478;51.844;6.582;2023-02-26T12:44:22;8.63;;;2.03;;
65737;SDS011;52478;51.844;6.582;2023-02-26T12:47:16;8.38;;;2.08;;
65737;SDS011;52478;51.844;6.582;2023-02-26T12:49:53;9.57;;;1.83;;
65737;SDS011;52478;51.844;6.582;2023-02-26T12:52:43;7.03;;;1.50;;
65737;SDS011;52478;51.844;6.582;2023-02-26T12:55:27;8.13;;;2.00;;
65737;SDS011;52478;51.844;6.582;2023-02-26T12:58:19;7.65;;;1.73;;
65737;SDS011;52478;51.844;6.582;2023-02-26T13:01:02;7.75;;;1.92;;
65737;SDS011;52478;51.844;6.582;2023-02-26T13:03:46;6.10;;;1.70;;
65737;SDS011;52478;51.844;6.582;2023-02-26T13:09:38;8.43;;;1.80;;
65737;SDS011;52478;51.844;6.582;2023-02-26T13:14:48;10.43;;;2.03;;
65737;SDS011;52478;51.844;6.582;2023-02-26T13:17:22;9.32;;;1.67;;
65737;SDS011;52478;51.844;6.582;2023-02-26T13:19:54;7.47;;;1.75;;
65737;SDS011;52478;51.844;6.582;2023-02-26T13:22:23;9.10;;;2.13;;
65737;SDS011;52478;51.844;6.582;2023-02-26T13:24:55;9.27;;;1.83;;
65737;SDS011;52478;51.844;6.582;2023-02-26T13:27:26;9.75;;;1.50;;
65737;SDS011;52478;51.844;6.582;2023-02-26T13:30:02;8.48;;;1.70;;
65737;SDS011;52478;51.844;6.582;2023-02-26T13:32:34;7.97;;;1.95;;
65737;SDS011;52478;51.844;6.582;2023-02-26T13:35:04;7.50;;;2.10;;
65737;SDS011;52478;51.844;6.582;2023-02-26T13:37:33;10.25;;;1.83;;
65737;SDS011;52478;51.844;6.582;2023-02-26T13:40:15;9.48;;;2.00;;
65737;SDS011;52478;51.844;6.582;2023-02-26T13:42:56;6.40;;;1.92;;
65737;SDS011;52478;51.844;6.582;2023-02-26T13:45:34;6.68;;;1.90;;
65737;SDS011;52478;51.844;6.582;2023-02-26T13:48:14;8.13;;;1.75;;
65737;SDS011;52478;51.844;6.582;2023-02-26T13:50:49;8.05;;;1.83;;
65737;SDS011;52478;51.844;6.582;2023-02-26T13:53:32;9.27;;;1.70;;
65737;SDS011;52478;51.844;6.582;2023-02-26T13:56:06;8.05;;;1.95;;
65737;SDS011;52478;51.844;6.582;2023-02-26T13:58:38;10.52;;;1.77;;
65737;SDS011;52478;51.844;6.582;2023-02-26T14:01:08;7.72;;;1.90;;
65737;SDS011;52478;51.844;6.582;2023-02-26T14:03:40;7.03;;;1.75;;
65737;SDS011;52478;51.844;6.582;2023-02-26T14:06:22;5.95;;;1.50;;
65737;SDS011;52478;51.844;6.582;2023-02-26T14:08:52;7.25;;;1.80;;
65737;SDS011;52478;51.844;6.582;2023-02-26T14:11:25;8.18;;;1.90;;
65737;SDS011;52478;51.844;6.582;2023-02-26T14:14:05;7.90;;;1.70;;
65737;SDS011;52478;51.844;6.582;2023-02-26T14:16:38;6.18;;;1.50;;
65737;SDS011;52478;51.844;6.582;2023-02-26T14:19:21;6.70;;;1.52;;
65737;SDS011;52478;51.844;6.582;2023-02-26T14:21:51;5.50;;;1.27;;
65737;SDS011;52478;51.844;6.582;2023-02-26T14:24:22;7.20;;;1.70;;
65737;SDS011;52478;51.844;6.582;2023-02-26T14:27:08;8.32;;;1.60;;
65737;SDS011;52478;51.844;6.582;2023-02-26T14:29:56;6.88;;;1.60;;
65737;SDS011;52478;51.844;6.582;2023-02-26T14:32:25;7.05;;;1.60;;
65737;SDS011;52478;51.844;6.582;2023-02-26T14:34:56;9.07;;;2.03;;
65737;SDS011;52478;51.844;6.582;2023-02-26T14:37:28;5.78;;;1.63;;
65737;SDS011;52478;51.844;6.582;2023-02-26T14:39:57;6.00;;;1.58;;
65737;SDS011;52478;51.844;6.582;2023-02-26T14:42:33;6.40;;;1.70;;
65737;SDS011;52478;51.844;6.582;2023-02-26T14:45:07;8.45;;;1.98;;
65737;SDS011;52478;51.844;6.582;2023-02-26T14:47:42;6.68;;;1.95;;
65737;SDS011;52478;51.844;6.582;2023-02-26T14:50:10;4.32;;;1.52;;
65737;SDS011;52478;51.844;6.582;2023-02-26T14:52:45;6.72;;;1.45;;
65737;SDS011;52478;51.844;6.582;2023-02-26T14:55:42;6.43;;;1.90;;
65737;SDS011;52478;51.844;6.582;2023-02-26T14:58:21;5.45;;;1.23;;
65737;SDS011;52478;51.844;6.582;2023-02-26T15:01:00;5.15;;;1.25;;
65737;SDS011;52478;51.844;6.582;2023-02-26T15:03:42;4.72;;;1.45;;
65737;SDS011;52478;51.844;6.582;2023-02-26T15:09:16;8.25;;;1.42;;
65737;SDS011;52478;51.844;6.582;2023-02-26T15:11:54;5.53;;;1.70;;
65737;SDS011;52478;51.844;6.582;2023-02-26T15:17:25;4.95;;;1.30;;
65737;SDS011;52478;51.844;6.582;2023-02-26T15:20:03;5.82;;;1.38;;
65737;SDS011;52478;51.844;6.582;2023-02-26T15:22:39;5.95;;;1.70;;
65737;SDS011;52478;51.844;6.582;2023-02-26T15:25:28;4.47;;;1.40;;
65737;SDS011;52478;51.844;6.582;2023-02-26T15:27:58;6.22;;;1.40;;
65737;SDS011;52478;51.844;6.582;2023-02-26T15:30:27;4.85;;;1.30;;
65737;SDS011;52478;51.844;6.582;2023-02-26T15:32:55;5.65;;;1.40;;
65737;SDS011;52478;51.844;6.582;2023-02-26T15:35:23;6.85;;;1.58;;
65737;SDS011;52478;51.844;6.582;2023-02-26T15:37:53;7.47;;;1.55;;
65737;SDS011;52478;51.844;6.582;2023-02-26T15:40:22;5.43;;;1.30;;
65737;SDS011;52478;51.844;6.582;2023-02-26T15:45:18;5.28;;;1.25;;
65737;SDS011;52478;51.844;6.582;2023-02-26T15:47:55;6.32;;;1.45;;
65737;SDS011;52478;51.844;6.582;2023-02-26T15:50:25;8.18;;;1.42;;